KPTN/PTN METAR and TAF weather

Enter ICAO airport designator
Station Type Date Time Source
KPTN METAR 2024/04/11 15:56 UTC NOAA

KPTN 111556Z AUTO 33014G23KT 10SM BKN026 BKN032 18/13 A2992 RMK AO2 SLP131 T01780128 PNO $


Station Type Date Time Source
KPTN Decoded METAR 2024/04/11 15:56 UTC NOAA

Patterson Memorial, LA, United States (KPTN) 29-43N 091-20W
Apr 11, 2024 - 11:56 AM EDT / 2024.04.11 1556 UTC
Wind: from the NNW (330 degrees) at 16 MPH (14 KT) gusting to 26 MPH (23 KT):0
Visibility: 10 mile(s):0
Sky conditions: mostly cloudy
Temperature: 64.0 F (17.8 C)
Dew Point: 55.0 F (12.8 C)
Relative Humidity: 72%
Pressure (altimeter): 29.92 in. Hg (1013 hPa)
ob: KPTN 111556Z AUTO 33014G23KT 10SM BKN026 BKN032 18/13 A2992 RMK AO2 SLP131 T01780128 PNO
cycle: 16

Station Type Date Time Source
KPTN TAF UTC NOAA

Error!

Example: see airport list